Time;durP1;ratioP1;P1;durP2;ratioP2;P2;SDS_P1;SDS_P2;PMS_P1;PMS_P2;Temp;Humidity;BMP_temperature;BMP_pressure;BME280_temperature;BME280_humidity;BME280_pressure;Samples;Min_cycle;Max_cycle;Signal;HPM_P1;HPM_P2
2021/06/12 00:01:46;;;;;;;14.20;7.12;;;;;;;18.12;64.57;100092.22;1694052;83;21856;-65
2021/06/12 00:04:13;;;;;;;9.65;6.75;;;;;;;18.06;64.99;100088.12;1709593;82;21242;-66
2021/06/12 00:06:39;;;;;;;13.90;7.08;;;;;;;18.03;65.08;100088.47;1713091;82;21114;-66
2021/06/12 00:09:06;;;;;;;10.85;6.70;;;;;;;18.04;65.08;100089.62;1692202;82;21093;-66
2021/06/12 00:11:35;;;;;;;11.38;6.58;;;;;;;18.05;65.17;100085.12;1686440;82;21655;-65
2021/06/12 00:14:02;;;;;;;10.65;6.87;;;;;;;18.02;65.21;100076.97;1698559;83;21114;-65
2021/06/12 00:16:30;;;;;;;9.00;6.55;;;;;;;17.96;65.44;100075.05;1727750;82;21086;-65
2021/06/12 00:18:58;;;;;;;10.85;8.63;;;;;;;17.90;65.47;100075.74;1728950;82;21645;-65
2021/06/12 00:21:24;;;;;;;10.25;7.40;;;;;;;17.83;65.59;100073.75;1700735;83;21600;-65
2021/06/12 00:23:51;;;;;;;10.45;6.67;;;;;;;17.81;65.55;100072.30;1730701;80;21094;-70
2021/06/12 00:26:18;;;;;;;11.48;7.40;;;;;;;17.75;65.60;100071.18;1759313;80;21065;-70
2021/06/12 00:28:44;;;;;;;10.48;6.60;;;;;;;17.69;65.64;100072.39;1757421;79;21111;-69
2021/06/12 00:31:12;;;;;;;10.38;7.10;;;;;;;17.66;65.85;100063.42;1758636;80;21656;-69
2021/06/12 00:33:39;;;;;;;10.20;7.33;;;;;;;17.69;65.78;100064.41;1742101;80;21075;-69
2021/06/12 00:36:07;;;;;;;11.45;7.12;;;;;;;17.73;65.51;100069.69;1758702;80;21145;-69
2021/06/12 00:38:33;;;;;;;16.12;7.45;;;;;;;17.76;65.34;100076.81;1757822;80;21045;-69
2021/06/12 00:40:59;;;;;;;11.45;7.87;;;;;;;17.78;65.14;100080.63;1760501;80;21885;-68
2021/06/12 00:43:26;;;;;;;14.03;8.13;;;;;;;17.77;65.10;100082.95;1758133;80;21106;-69
2021/06/12 00:45:52;;;;;;;9.40;7.53;;;;;;;17.75;64.92;100079.64;1758595;80;21090;-69
2021/06/12 00:48:19;;;;;;;14.33;7.97;;;;;;;17.72;64.80;100075.52;1757676;80;21142;-70
2021/06/12 00:50:45;;;;;;;12.70;7.83;;;;;;;17.73;64.91;100072.34;1730490;80;21619;-68
2021/06/12 00:53:15;;;;;;;10.78;7.58;;;;;;;17.70;64.92;100076.69;1758437;80;21169;-69
2021/06/12 00:55:40;;;;;;;9.88;6.78;;;;;;;17.66;65.12;100080.20;1758138;80;21110;-69
2021/06/12 00:58:07;;;;;;;9.73;7.03;;;;;;;17.66;65.18;100081.54;1759706;80;21082;-69
2021/06/12 01:00:33;;;;;;;10.18;7.15;;;;;;;17.68;65.15;100072.88;1758907;80;21091;-68
2021/06/12 01:03:00;;;;;;;9.60;7.00;;;;;;;17.73;65.08;100077.67;1758036;80;21062;-69
2021/06/12 01:05:27;;;;;;;8.80;7.10;;;;;;;17.73;65.25;100073.67;1755384;80;21071;-68
2021/06/12 01:07:53;;;;;;;10.25;7.03;;;;;;;17.72;65.38;100075.52;1757112;80;21054;-68
2021/06/12 01:10:19;;;;;;;10.50;7.20;;;;;;;17.70;65.40;100078.02;1729548;80;21085;-68
2021/06/12 01:13:23;;;;;;;10.68;7.70;;;;;;;17.69;65.60;100076.38;1757209;80;21599;-68
2021/06/12 01:16:22;;;;;;;12.25;7.35;;;;;;;17.64;65.76;100081.71;1757999;80;21082;-69
2021/06/12 01:18:50;;;;;;;9.83;7.33;;;;;;;17.59;65.94;100078.75;1755503;80;21537;-69
2021/06/12 01:21:35;;;;;;;9.48;7.17;;;;;;;17.60;65.87;100082.23;1722030;80;21695;-69
2021/06/12 01:24:24;;;;;;;11.68;7.30;;;;;;;17.61;65.79;100082.06;1742024;81;21138;-70
2021/06/12 01:27:19;;;;;;;10.60;7.47;;;;;;;17.64;65.86;100080.38;1741548;81;22225;-70
2021/06/12 01:30:22;;;;;;;12.45;8.20;;;;;;;17.66;66.00;100082.05;1739786;80;21027;-69
2021/06/12 01:32:52;;;;;;;10.32;7.30;;;;;;;17.56;66.27;100080.43;1741639;81;21086;-69
2021/06/12 01:35:40;;;;;;;10.80;7.53;;;;;;;17.44;66.74;100084.50;1728029;82;21605;-69
2021/06/12 01:38:09;;;;;;;11.48;7.58;;;;;;;17.41;66.96;100079.53;1726812;81;21102;-69
2021/06/12 01:40:40;;;;;;;13.13;7.90;;;;;;;17.36;67.08;100073.39;1725531;82;21153;-70
2021/06/12 01:43:08;;;;;;;11.53;7.83;;;;;;;17.37;67.15;100075.58;1741717;82;21074;-69
2021/06/12 01:45:35;;;;;;;9.40;6.70;;;;;;;17.44;67.02;100076.02;1685560;83;21121;-69
2021/06/12 01:48:02;;;;;;;11.53;6.90;;;;;;;17.49;66.90;100074.67;1742519;82;21070;-70
2021/06/12 01:50:28;;;;;;;12.98;7.92;;;;;;;17.52;66.72;100080.98;1740776;80;21098;-70
2021/06/12 01:52:55;;;;;;;10.30;7.80;;;;;;;17.51;66.67;100081.46;1741395;80;21098;-70
2021/06/12 01:55:26;;;;;;;14.65;8.60;;;;;;;17.50;66.52;100080.30;1740877;81;21778;-69
2021/06/12 01:57:52;;;;;;;17.70;8.65;;;;;;;17.47;66.44;100080.17;1719132;82;22044;-70
2021/06/12 02:00:20;;;;;;;12.25;8.38;;;;;;;17.43;66.62;100078.84;1741393;81;21154;-70
2021/06/12 02:02:47;;;;;;;10.90;7.62;;;;;;;17.40;66.75;100080.52;1722057;82;21554;-70
2021/06/12 02:05:18;;;;;;;10.72;7.20;;;;;;;17.39;66.83;100083.69;1741769;81;21102;-70
2021/06/12 02:07:44;;;;;;;12.23;7.50;;;;;;;17.42;66.89;100080.69;1743280;80;21703;-70
2021/06/12 02:10:13;;;;;;;13.55;8.05;;;;;;;17.47;66.94;100082.83;1741400;81;21807;-70
2021/06/12 02:12:40;;;;;;;10.25;7.47;;;;;;;17.50;66.82;100079.83;1740513;81;21067;-69
2021/06/12 02:15:09;;;;;;;10.75;7.58;;;;;;;17.53;66.88;100080.77;1741172;80;21089;-69
2021/06/12 02:17:37;;;;;;;10.00;7.20;;;;;;;17.54;66.74;100081.63;1740271;80;21102;-69
2021/06/12 02:20:06;;;;;;;11.03;8.50;;;;;;;17.53;66.69;100085.28;1742554;82;21090;-69
2021/06/12 02:22:35;;;;;;;11.88;7.83;;;;;;;17.52;66.56;100089.78;1760017;80;21083;-69
2021/06/12 02:25:01;;;;;;;12.30;7.90;;;;;;;17.51;66.32;100091.28;1761362;80;21087;-70
2021/06/12 02:27:30;;;;;;;10.60;7.87;;;;;;;17.45;66.16;100089.65;1761587;80;21118;-70
2021/06/12 02:29:56;;;;;;;11.95;8.25;;;;;;;17.43;66.21;100094.32;1762792;80;21082;-70
2021/06/12 02:32:22;;;;;;;12.03;7.35;;;;;;;17.44;66.26;100089.82;1766462;80;21114;-70
2021/06/12 02:34:48;;;;;;;10.20;7.60;;;;;;;17.45;66.50;100091.49;1764261;80;21517;-69
2021/06/12 02:37:15;;;;;;;12.28;8.33;;;;;;;17.48;66.65;100100.42;1762963;80;21581;-69
2021/06/12 02:39:42;;;;;;;12.37;7.85;;;;;;;17.49;66.75;100099.95;1762619;80;21042;-69
2021/06/12 02:42:09;;;;;;;11.65;8.65;;;;;;;17.50;66.87;100108.23;1763862;80;21129;-69
2021/06/12 02:44:36;;;;;;;12.07;9.18;;;;;;;17.51;66.90;100108.06;1761011;80;21109;-70
2021/06/12 02:47:05;;;;;;;11.90;9.58;;;;;;;17.49;66.88;100114.06;1760443;80;21110;-70
2021/06/12 02:49:35;;;;;;;13.18;9.18;;;;;;;17.44;67.03;100113.25;1761130;79;21126;-70
2021/06/12 02:52:06;;;;;;;11.73;7.85;;;;;;;17.44;66.96;100110.59;1762445;80;21031;-70
2021/06/12 02:54:32;;;;;;;13.75;8.58;;;;;;;17.49;66.82;100111.91;1738243;80;21684;-70
2021/06/12 02:56:59;;;;;;;11.05;8.38;;;;;;;17.56;66.73;100112.35;1708720;82;21117;-70
2021/06/12 02:59:26;;;;;;;12.03;8.10;;;;;;;17.63;66.59;100119.13;1761011;80;21102;-70
2021/06/12 03:01:52;;;;;;;10.85;8.88;;;;;;;17.63;66.55;100121.80;1730504;80;21459;-69
2021/06/12 03:04:18;;;;;;;10.43;8.18;;;;;;;17.61;66.61;100115.31;1763038;80;21066;-67
2021/06/12 03:06:47;;;;;;;12.03;8.15;;;;;;;17.61;66.60;100112.66;1714862;80;21631;-64
2021/06/12 03:09:20;;;;;;;12.50;8.10;;;;;;;17.58;66.75;100107.68;1740224;80;21759;-64
2021/06/12 03:11:50;;;;;;;10.65;8.08;;;;;;;17.55;67.09;100112.52;1742214;80;22424;-64
2021/06/12 03:14:17;;;;;;;11.00;7.83;;;;;;;17.60;67.25;100111.50;1759304;80;21090;-64
2021/06/12 03:16:45;;;;;;;11.73;8.18;;;;;;;17.73;67.12;100118.41;1760988;80;21400;-65
2021/06/12 03:19:14;;;;;;;11.80;8.23;;;;;;;17.87;67.07;100117.34;1760025;80;21425;-70
2021/06/12 03:21:40;;;;;;;11.83;8.63;;;;;;;17.99;67.04;100114.11;1758611;80;21579;-70
2021/06/12 03:24:07;;;;;;;11.08;7.83;;;;;;;18.12;66.94;100114.00;1712161;80;21074;-69
2021/06/12 03:26:34;;;;;;;10.28;7.97;;;;;;;18.18;66.74;100118.63;1753907;80;21103;-69
2021/06/12 03:29:04;;;;;;;14.68;9.08;;;;;;;18.24;66.62;100119.25;1735824;80;21118;-69
2021/06/12 03:31:31;;;;;;;12.23;8.90;;;;;;;18.28;66.33;100121.86;1750537;80;21109;-67
2021/06/12 03:33:58;;;;;;;13.98;8.95;;;;;;;18.30;65.90;100119.84;1752050;80;21134;-68
2021/06/12 03:36:26;;;;;;;12.23;8.70;;;;;;;18.37;65.71;100127.46;1751943;80;22198;-67
2021/06/12 03:38:53;;;;;;;10.43;8.25;;;;;;;18.46;65.57;100116.22;1731108;80;21664;-67
2021/06/12 03:41:20;;;;;;;14.13;8.80;;;;;;;18.57;65.60;100117.09;1755112;79;21115;-67
2021/06/12 03:43:48;;;;;;;11.83;8.98;;;;;;;18.65;65.78;100118.05;1730575;79;21078;-64
2021/06/12 03:46:17;;;;;;;9.90;8.08;;;;;;;18.72;65.76;100124.29;1755529;79;22285;-68
2021/06/12 03:48:48;;;;;;;10.78;8.25;;;;;;;18.77;65.74;100123.75;1751016;80;21070;-67
2021/06/12 03:51:18;;;;;;;17.32;9.03;;;;;;;18.81;65.83;100125.03;1752753;80;21075;-67
2021/06/12 03:53:46;;;;;;;15.03;9.85;;;;;;;18.85;65.88;100126.36;1750909;79;21125;-66
2021/06/12 03:56:17;;;;;;;13.03;9.10;;;;;;;18.95;65.65;100134.91;1711743;82;21137;-67
2021/06/12 03:58:45;;;;;;;10.72;8.30;;;;;;;19.07;65.36;100135.28;1747620;80;21070;-68
2021/06/12 04:01:14;;;;;;;15.30;10.03;;;;;;;19.17;65.23;100138.48;1727071;80;21059;-67
2021/06/12 04:03:43;;;;;;;13.08;10.32;;;;;;;19.27;65.09;100134.21;1748862;79;22366;-68
2021/06/12 04:06:10;;;;;;;15.75;9.90;;;;;;;19.34;65.13;100137.78;1749665;79;21064;-63
2021/06/12 04:08:37;;;;;;;16.40;10.68;;;;;;;19.38;65.10;100142.23;1753233;79;21078;-69
2021/06/12 04:11:05;;;;;;;15.43;10.10;;;;;;;19.38;65.17;100136.89;1737765;80;21074;-69
2021/06/12 04:13:31;;;;;;;13.60;10.53;;;;;;;19.39;65.20;100139.38;1713464;82;21118;-66
2021/06/12 04:15:58;;;;;;;13.65;10.10;;;;;;;19.45;65.22;100141.80;1753769;80;20979;-69
2021/06/12 04:18:25;;;;;;;13.55;10.20;;;;;;;19.55;65.10;100138.84;1754915;79;21083;-66
2021/06/12 04:20:51;;;;;;;17.05;10.85;;;;;;;19.63;65.01;100138.73;1731093;80;21069;-68
2021/06/12 04:23:18;;;;;;;13.78;10.80;;;;;;;19.66;64.93;100141.84;1750348;80;22328;-67
2021/06/12 04:25:44;;;;;;;14.15;11.20;;;;;;;19.64;64.99;100141.73;1751702;80;21102;-68
2021/06/12 04:28:10;;;;;;;15.03;10.70;;;;;;;19.61;65.07;100154.11;1751116;80;21715;-69
2021/06/12 04:30:36;;;;;;;12.20;9.25;;;;;;;19.61;65.25;100152.78;1730290;80;21348;-68
2021/06/12 04:33:03;;;;;;;17.15;10.30;;;;;;;19.61;65.26;100150.11;1727436;80;21083;-69
2021/06/12 04:35:31;;;;;;;11.57;9.90;;;;;;;19.68;65.26;100157.67;1750291;80;21070;-68
2021/06/12 04:37:59;;;;;;;13.13;9.95;;;;;;;19.78;65.33;100166.23;1753137;80;21050;-67
2021/06/12 04:40:29;;;;;;;12.82;9.53;;;;;;;19.84;65.01;100159.34;1752851;80;21070;-66
2021/06/12 04:42:56;;;;;;;13.90;10.20;;;;;;;19.88;64.94;100150.44;1752214;80;21059;-66
2021/06/12 04:45:22;;;;;;;14.10;9.50;;;;;;;19.89;65.03;100152.92;1743121;80;21082;-68
2021/06/12 04:47:49;;;;;;;11.22;9.45;;;;;;;19.93;64.66;100154.19;1750865;80;21143;-67
2021/06/12 04:50:16;;;;;;;12.20;8.43;;;;;;;19.92;64.30;100151.70;1751546;79;21104;-66
2021/06/12 04:52:43;;;;;;;13.62;9.08;;;;;;;19.91;64.28;100150.88;1751638;80;21111;-65
2021/06/12 04:55:11;;;;;;;11.12;7.92;;;;;;;19.88;64.59;100157.11;1736482;80;21696;-68
2021/06/12 04:57:38;;;;;;;18.23;12.70;;;;;;;19.90;64.51;100151.88;1729064;80;22514;-69
2021/06/12 05:00:08;;;;;;;9.70;7.10;;;;;;;20.02;63.94;100153.55;1751177;79;21106;-70
2021/06/12 05:02:38;;;;;;;8.23;6.08;;;;;;;20.13;63.49;100155.72;1752280;79;21327;-66
2021/06/12 05:05:06;;;;;;;12.60;8.40;;;;;;;20.18;62.86;100153.30;1751619;80;21133;-66
2021/06/12 05:07:32;;;;;;;15.40;12.15;;;;;;;20.22;62.82;100147.06;1755795;80;21096;-66
2021/06/12 05:09:59;;;;;;;15.00;11.22;;;;;;;20.29;61.94;100156.47;1752507;80;21102;-65
2021/06/12 05:12:25;;;;;;;10.13;6.83;;;;;;;20.33;60.82;100149.73;1757866;80;21506;-66
2021/06/12 05:14:55;;;;;;;12.55;7.72;;;;;;;20.32;60.78;100149.41;1753119;80;21478;-67
2021/06/12 05:17:20;;;;;;;21.02;14.55;;;;;;;20.31;61.20;100145.07;1754454;80;21095;-67
2021/06/12 05:19:47;;;;;;;8.93;6.65;;;;;;;20.33;61.54;100147.06;1752617;80;21097;-68
2021/06/12 05:22:13;;;;;;;10.18;7.00;;;;;;;20.40;61.37;100137.25;1759791;80;21103;-65
2021/06/12 05:24:41;;;;;;;10.10;6.85;;;;;;;20.52;60.96;100138.37;1759911;80;21145;-63
2021/06/12 05:27:10;;;;;;;8.13;5.55;;;;;;;20.59;59.70;100139.75;1760876;80;21526;-64
2021/06/12 05:29:37;;;;;;;10.70;6.78;;;;;;;20.57;59.87;100135.94;1759048;80;21687;-64
2021/06/12 05:32:05;;;;;;;9.78;6.80;;;;;;;20.58;59.70;100134.11;1738049;80;21066;-65
2021/06/12 05:34:35;;;;;;;13.22;7.55;;;;;;;20.58;59.74;100139.45;1763015;80;21172;-64
2021/06/12 05:37:01;;;;;;;11.78;7.62;;;;;;;20.58;59.91;100134.92;1761268;79;21083;-66
2021/06/12 05:39:29;;;;;;;10.58;7.85;;;;;;;20.61;59.52;100141.75;1756449;79;21145;-67
2021/06/12 05:41:56;;;;;;;10.20;7.12;;;;;;;20.63;59.42;100137.55;1760367;80;21061;-67
2021/06/12 05:44:22;;;;;;;10.38;6.45;;;;;;;20.67;58.84;100142.83;1736869;80;21093;-65
2021/06/12 05:46:50;;;;;;;9.20;6.85;;;;;;;20.71;58.79;100137.40;1760267;79;21125;-67
2021/06/12 05:49:18;;;;;;;10.05;6.87;;;;;;;20.82;59.29;100138.20;1763348;80;21097;-67
2021/06/12 05:51:45;;;;;;;9.75;6.97;;;;;;;20.89;58.75;100133.71;1731675;80;21180;-58
2021/06/12 05:54:12;;;;;;;9.35;6.97;;;;;;;20.93;59.33;100136.33;1762075;80;21117;-62
2021/06/12 05:56:38;;;;;;;10.05;7.15;;;;;;;20.97;59.95;100134.89;1760952;80;21062;-62
2021/06/12 05:59:05;;;;;;;11.73;6.60;;;;;;;21.04;58.79;100127.43;1760935;80;21086;-62
2021/06/12 06:01:31;;;;;;;8.88;6.25;;;;;;;21.07;59.16;100131.87;1760638;80;21175;-62
2021/06/12 06:03:57;;;;;;;9.20;6.15;;;;;;;21.09;59.13;100128.47;1736273;80;21089;-60
2021/06/12 06:06:24;;;;;;;9.75;6.08;;;;;;;21.12;59.13;100120.06;1760940;79;21075;-59
2021/06/12 06:08:50;;;;;;;8.63;6.75;;;;;;;21.14;58.42;100130.56;1729520;80;21077;-58
2021/06/12 06:11:17;;;;;;;8.73;6.10;;;;;;;21.17;58.60;100130.17;1760600;79;21168;-59
2021/06/12 06:13:45;;;;;;;7.28;5.37;;;;;;;21.22;58.60;100122.37;1758601;80;21355;-63
2021/06/12 06:16:12;;;;;;;10.38;6.62;;;;;;;21.38;58.72;100123.05;1762994;79;21523;-66
2021/06/12 06:18:39;;;;;;;11.80;6.55;;;;;;;21.47;58.09;100122.70;1762696;79;21019;-66
2021/06/12 06:21:07;;;;;;;8.40;6.17;;;;;;;21.50;57.69;100129.50;1762370;80;21619;-65
2021/06/12 06:23:33;;;;;;;8.78;5.35;;;;;;;21.48;57.51;100130.22;1723486;80;21641;-68
2021/06/12 06:26:00;;;;;;;7.80;5.40;;;;;;;21.49;56.97;100127.86;1761022;80;21098;-68
2021/06/12 06:28:26;;;;;;;7.40;4.80;;;;;;;21.53;57.28;100125.09;1758282;79;21134;-68
2021/06/12 06:30:53;;;;;;;8.15;5.47;;;;;;;21.59;57.79;100125.63;1757904;80;21051;-67
2021/06/12 06:33:22;;;;;;;7.33;5.50;;;;;;;21.67;57.48;100131.30;1762097;80;21047;-68
2021/06/12 06:35:49;;;;;;;11.68;8.45;;;;;;;21.71;57.48;100127.20;1760511;80;21069;-66
2021/06/12 06:38:17;;;;;;;7.85;5.58;;;;;;;21.76;57.58;100127.95;1760391;80;21065;-62
2021/06/12 06:40:43;;;;;;;9.25;6.05;;;;;;;21.81;57.11;100130.84;1759377;79;21089;-66
2021/06/12 06:43:12;;;;;;;9.35;6.95;;;;;;;21.84;56.08;100130.44;1760269;80;21129;-68
2021/06/12 06:45:41;;;;;;;9.23;7.05;;;;;;;21.87;56.08;100135.36;1759247;80;21078;-67
2021/06/12 06:48:12;;;;;;;13.40;9.13;;;;;;;21.88;56.32;100128.98;1760710;79;21082;-67
2021/06/12 06:50:40;;;;;;;9.00;6.00;;;;;;;21.87;55.81;100132.20;1761050;80;21294;-67
2021/06/12 06:53:07;;;;;;;7.15;5.30;;;;;;;21.87;56.06;100132.69;1762796;80;22146;-69
2021/06/12 06:55:33;;;;;;;10.50;7.47;;;;;;;21.87;55.81;100136.70;1761617;80;21045;-71
2021/06/12 06:58:00;;;;;;;8.58;5.58;;;;;;;21.92;54.24;100148.97;1741226;80;21085;-68
2021/06/12 07:00:27;;;;;;;15.10;9.75;;;;;;;21.92;54.00;100140.94;1753844;79;21106;-66
2021/06/12 07:02:54;;;;;;;12.10;9.05;;;;;;;21.95;54.58;100145.89;1761518;80;21641;-71
2021/06/12 07:05:20;;;;;;;7.90;5.50;;;;;;;21.96;54.09;100140.86;1761313;79;21212;-67
2021/06/12 07:07:47;;;;;;;6.60;4.28;;;;;;;21.97;54.08;100134.48;1763442;79;21689;-66
2021/06/12 07:10:16;;;;;;;5.65;3.12;;;;;;;22.03;54.32;100130.97;1761260;80;21118;-67
2021/06/12 07:12:42;;;;;;;10.80;6.95;;;;;;;22.10;52.33;100136.86;1732845;80;21596;-64
2021/06/12 07:15:10;;;;;;;11.38;6.45;;;;;;;22.17;51.93;100140.36;1760105;79;21061;-62
2021/06/12 07:17:36;;;;;;;11.63;7.87;;;;;;;22.21;51.70;100134.39;1759674;79;21518;-63
2021/06/12 07:20:06;;;;;;;9.48;5.62;;;;;;;22.27;51.70;100135.41;1758308;80;21572;-64
2021/06/12 07:22:33;;;;;;;7.00;4.33;;;;;;;22.36;51.34;100140.08;1756820;80;21138;-63
2021/06/12 07:25:01;;;;;;;6.17;2.87;;;;;;;22.42;50.62;100145.44;1752142;80;21704;-64
2021/06/12 07:27:27;;;;;;;6.95;4.55;;;;;;;22.45;50.77;100145.03;1750542;80;21048;-66
2021/06/12 07:29:53;;;;;;;10.75;6.70;;;;;;;22.51;50.94;100137.19;1750067;79;21165;-63
2021/06/12 07:32:20;;;;;;;8.15;5.03;;;;;;;22.58;50.29;100135.36;1753027;80;21663;-62
2021/06/12 07:34:47;;;;;;;6.78;3.35;;;;;;;22.64;50.13;100137.18;1755051;80;21162;-60
2021/06/12 07:37:13;;;;;;;6.22;3.42;;;;;;;22.69;48.74;100136.04;1715523;82;22493;-65
2021/06/12 07:39:42;;;;;;;6.15;3.47;;;;;;;22.76;49.83;100140.05;1714288;82;21179;-65
2021/06/12 07:42:11;;;;;;;6.97;3.22;;;;;;;22.81;49.00;100130.37;1715631;82;21183;-64
2021/06/12 07:44:37;;;;;;;16.10;11.05;;;;;;;22.87;49.18;100126.01;1695410;82;21134;-61
2021/06/12 07:47:04;;;;;;;8.33;5.05;;;;;;;22.91;49.03;100123.73;1752409;80;21767;-67
2021/06/12 07:49:31;;;;;;;7.28;4.72;;;;;;;22.93;49.11;100132.38;1751431;80;21117;-67
2021/06/12 07:51:58;;;;;;;7.30;4.58;;;;;;;22.94;49.14;100123.31;1727679;80;21087;-67
2021/06/12 07:54:24;;;;;;;7.17;3.95;;;;;;;22.98;49.77;100129.39;1752610;80;21123;-66
2021/06/12 07:56:51;;;;;;;6.97;3.40;;;;;;;23.01;49.50;100130.81;1755282;80;21130;-64
2021/06/12 07:59:19;;;;;;;7.42;3.92;;;;;;;23.05;49.77;100126.69;1753553;79;21094;-66
2021/06/12 08:01:45;;;;;;;7.12;4.95;;;;;;;23.08;49.09;100122.78;1754699;80;21130;-63
2021/06/12 08:04:12;;;;;;;7.33;4.75;;;;;;;23.12;49.21;100130.20;1753362;80;21533;-64
2021/06/12 08:06:39;;;;;;;6.25;4.12;;;;;;;23.15;49.05;100127.09;1752991;80;21118;-66
2021/06/12 08:09:06;;;;;;;5.10;3.22;;;;;;;23.17;49.09;100120.18;1737020;80;21471;-66
2021/06/12 08:11:33;;;;;;;9.08;5.30;;;;;;;23.20;49.45;100123.79;1739740;80;21090;-69
2021/06/12 08:14:01;;;;;;;10.03;7.33;;;;;;;23.27;48.98;100118.39;1751298;80;21094;-64
2021/06/12 08:16:28;;;;;;;6.95;4.30;;;;;;;23.32;48.64;100121.27;1734500;80;21098;-68
2021/06/12 08:18:55;;;;;;;5.90;3.47;;;;;;;23.38;48.28;100119.05;1744110;80;21262;-66
2021/06/12 08:21:21;;;;;;;6.00;4.00;;;;;;;23.41;48.58;100119.97;1726552;80;21102;-65
2021/06/12 08:23:48;;;;;;;5.25;2.90;;;;;;;23.46;48.20;100114.78;1726047;80;21177;-64
2021/06/12 08:26:15;;;;;;;7.70;4.22;;;;;;;23.53;47.85;100122.27;1749377;80;21106;-66
2021/06/12 08:28:42;;;;;;;6.12;3.42;;;;;;;23.61;46.83;100113.16;1717436;80;21027;-63
2021/06/12 08:31:09;;;;;;;7.12;3.87;;;;;;;23.67;46.84;100114.14;1747035;80;21135;-66
2021/06/12 08:33:35;;;;;;;7.72;5.08;;;;;;;23.69;45.99;100114.25;1717016;80;21086;-63
2021/06/12 08:36:02;;;;;;;5.70;3.30;;;;;;;23.73;45.11;100110.61;1741505;80;21134;-61
2021/06/12 08:38:30;;;;;;;4.78;2.37;;;;;;;23.79;44.16;100116.47;1749305;80;21131;-65
2021/06/12 08:40:57;;;;;;;9.03;5.25;;;;;;;23.88;42.52;100115.18;1746501;80;21076;-60
2021/06/12 08:43:30;;;;;;;10.28;6.15;;;;;;;23.97;42.15;100113.05;1751651;80;21150;-62
2021/06/12 08:45:59;;;;;;;7.67;4.70;;;;;;;24.03;42.12;100120.78;1749389;80;21137;-62
2021/06/12 08:48:26;;;;;;;6.97;3.72;;;;;;;24.07;42.07;100114.76;1748797;80;21076;-63
2021/06/12 08:50:53;;;;;;;5.28;2.40;;;;;;;24.15;41.13;100119.02;1746757;80;21047;-61
2021/06/12 08:53:20;;;;;;;6.65;2.98;;;;;;;24.22;40.78;100117.09;1744652;80;21601;-62
2021/06/12 08:55:46;;;;;;;5.03;2.52;;;;;;;24.27;40.71;100115.91;1746036;80;21146;-64
2021/06/12 08:58:13;;;;;;;6.85;4.03;;;;;;;24.30;42.32;100111.45;1716590;80;21070;-66
2021/06/12 09:00:41;;;;;;;9.95;5.67;;;;;;;24.33;41.34;100104.83;1746494;80;21088;-63
2021/06/12 09:03:13;;;;;;;6.50;3.42;;;;;;;24.33;41.79;100106.70;1742604;80;21048;-64
2021/06/12 09:05:51;;;;;;;8.33;5.28;;;;;;;24.33;41.85;100103.48;1746099;80;21854;-63
2021/06/12 09:08:29;;;;;;;6.17;3.65;;;;;;;24.37;41.42;100103.86;1717401;80;21098;-63
2021/06/12 09:11:12;;;;;;;7.45;4.65;;;;;;;24.40;41.71;100106.11;1744028;80;21344;-60
2021/06/12 09:13:52;;;;;;;5.83;3.22;;;;;;;24.43;42.43;100092.23;1744065;80;21095;-63
2021/06/12 09:16:30;;;;;;;5.37;3.20;;;;;;;24.46;42.33;100098.48;1748771;80;21015;-62
2021/06/12 09:19:04;;;;;;;5.58;2.85;;;;;;;24.50;42.29;100091.63;1749077;80;21147;-64
2021/06/12 09:21:34;;;;;;;8.60;5.22;;;;;;;24.57;42.16;100095.10;1749903;80;21082;-62
2021/06/12 09:24:04;;;;;;;7.45;3.27;;;;;;;24.72;42.06;100093.41;1744393;80;21063;-63
2021/06/12 09:26:46;;;;;;;5.00;2.83;;;;;;;24.82;42.14;100094.23;1740316;81;21211;-65
2021/06/12 09:29:17;;;;;;;7.58;4.55;;;;;;;24.90;39.20;100099.83;1741435;80;21101;-65
2021/06/12 09:31:47;;;;;;;6.08;3.55;;;;;;;24.92;39.96;100091.03;1711914;80;21112;-61
2021/06/12 09:34:18;;;;;;;5.83;3.50;;;;;;;24.96;40.25;100085.48;1738975;81;21434;-61
2021/06/12 09:36:45;;;;;;;7.40;3.05;;;;;;;24.95;40.47;100086.02;1742340;81;21121;-61
2021/06/12 09:39:20;;;;;;;5.30;2.85;;;;;;;24.87;41.71;100084.97;1740766;80;21137;-63
2021/06/12 09:41:52;;;;;;;6.30;3.10;;;;;;;24.77;41.47;100077.95;1742269;81;21105;-63
2021/06/12 09:44:39;;;;;;;5.50;2.92;;;;;;;24.67;41.26;100074.42;1740140;80;21081;-63
2021/06/12 09:47:12;;;;;;;5.87;3.10;;;;;;;24.60;42.16;100081.22;1713744;82;21826;-63
2021/06/12 09:49:39;;;;;;;5.53;3.02;;;;;;;24.60;42.10;100075.02;1740800;80;21083;-60
2021/06/12 09:52:10;;;;;;;5.08;2.67;;;;;;;24.64;42.59;100072.17;1741655;80;21081;-64
2021/06/12 09:54:49;;;;;;;7.05;3.47;;;;;;;24.70;42.46;100073.98;1741704;81;21719;-62
2021/06/12 09:57:25;;;;;;;6.87;3.12;;;;;;;24.77;43.15;100068.53;1739861;80;21105;-63
2021/06/12 09:59:55;;;;;;;;;;;;;;;24.84;41.97;100068.73;1718711;80;21054;-62
2021/06/12 10:02:39;;;;;;;6.00;2.67;;;;;;;24.92;42.12;100070.31;1741670;80;20941;-64
2021/06/12 10:05:09;;;;;;;5.33;2.87;;;;;;;24.96;42.21;100067.45;1743280;80;21356;-63
2021/06/12 10:07:35;;;;;;;5.22;2.95;;;;;;;25.07;41.59;100065.08;1739651;80;21071;-64
2021/06/12 10:10:11;;;;;;;5.30;2.55;;;;;;;25.17;42.00;100062.14;1741847;80;21168;-64
2021/06/12 10:12:39;;;;;;;5.47;2.55;;;;;;;25.34;42.04;100056.97;1741578;80;22339;-64
2021/06/12 10:15:08;;;;;;;7.35;2.87;;;;;;;25.51;41.90;100057.68;1716414;80;21093;-63
2021/06/12 10:17:48;;;;;;;6.47;2.92;;;;;;;25.65;42.06;100042.94;1742096;81;21606;-64
2021/06/12 10:20:20;;;;;;;6.80;3.20;;;;;;;25.75;41.66;100045.89;1738386;80;21102;-65
2021/06/12 10:22:49;;;;;;;5.83;3.87;;;;;;;25.85;41.74;100052.60;1741804;80;21054;-64
2021/06/12 10:25:15;;;;;;;6.25;3.62;;;;;;;25.91;40.78;100045.76;1750780;80;22194;-63
2021/06/12 10:27:42;;;;;;;10.05;3.15;;;;;;;25.94;41.04;100042.61;1730428;80;21118;-62
2021/06/12 10:30:11;;;;;;;7.15;3.12;;;;;;;25.86;40.67;100042.12;1748742;80;21137;-64
2021/06/12 10:32:47;;;;;;;7.97;3.65;;;;;;;25.76;40.88;100041.34;1752975;79;21139;-65
2021/06/12 10:35:20;;;;;;;7.80;3.87;;;;;;;25.74;41.14;100040.77;1734890;80;21053;-65
2021/06/12 10:49:28;;;;;;;5.78;3.17;;;;;;;27.57;38.86;100016.61;1748871;80;22055;-65
2021/06/12 10:51:54;;;;;;;4.65;2.95;;;;;;;27.86;38.93;100020.59;1723551;80;21135;-64
2021/06/12 10:54:26;;;;;;;6.37;3.55;;;;;;;27.93;39.40;100013.15;1716383;81;21136;-63
2021/06/12 10:56:59;;;;;;;8.63;3.40;;;;;;;28.00;38.61;100012.17;1673386;82;21144;-64
2021/06/12 10:59:52;;;;;;;5.55;3.20;;;;;;;28.03;38.54;100011.69;1698444;82;21647;-64
2021/06/12 11:02:40;;;;;;;5.47;3.50;;;;;;;28.05;38.89;100005.48;1702119;82;21077;-61
2021/06/12 11:07:33;;;;;;;6.87;3.20;;;;;;;27.94;38.25;100008.55;1731493;81;21101;-64
2021/06/12 11:10:18;;;;;;;5.12;3.52;;;;;;;27.79;37.51;100008.59;1722540;81;21083;-63
2021/06/12 11:12:46;;;;;;;6.50;3.70;;;;;;;27.66;37.74;100006.75;1732369;81;21070;-65
2021/06/12 11:15:34;;;;;;;5.55;3.65;;;;;;;27.58;38.31;100004.72;1722159;81;21461;-62
2021/06/12 11:18:22;;;;;;;6.83;3.12;;;;;;;27.55;37.82;100003.84;1733761;81;21120;-62
2021/06/12 11:21:03;;;;;;;5.70;3.62;;;;;;;27.51;37.79;99994.61;1729807;81;21116;-62
2021/06/12 11:23:54;;;;;;;5.78;3.35;;;;;;;27.49;38.65;99986.44;1726620;81;21119;-63
2021/06/12 11:26:22;;;;;;;5.12;3.42;;;;;;;27.45;37.13;99988.81;1734117;81;21133;-63
2021/06/12 11:29:09;;;;;;;9.13;3.62;;;;;;;27.36;37.82;99975.44;1727340;81;21230;-62
2021/06/12 11:31:37;;;;;;;5.58;3.42;;;;;;;27.34;39.05;99978.92;1731127;81;21130;-61
2021/06/12 11:34:21;;;;;;;5.20;3.62;;;;;;;27.31;38.53;99976.16;1670511;82;21885;-62
2021/06/12 11:37:09;;;;;;;6.42;3.50;;;;;;;27.30;39.51;99977.75;1684679;82;21139;-64
2021/06/12 11:39:47;;;;;;;5.97;3.67;;;;;;;27.27;39.11;99973.64;1700220;82;21585;-63
2021/06/12 11:42:14;;;;;;;6.03;3.67;;;;;;;27.18;40.10;99969.69;1700506;82;21094;-61
2021/06/12 11:44:40;;;;;;;13.58;3.60;;;;;;;27.14;39.68;99964.49;1729743;81;21195;-65
2021/06/12 11:47:07;;;;;;;5.28;3.80;;;;;;;27.08;39.33;99968.15;1730995;81;21111;-65